Аэропорт
Магнитогорск (USCM)

 USCM / MQF
ЗЦ Екатеринбург
Екатеринбург (USSS)
Челябинск (USCC)
 53.39310, 58.75570  / 1430 ft

 USCM 191030Z 02003MPS 9999 SCT040 M04/M07 Q1026 R36/090060 NOSIG RMK QFE731
 USCM 182300Z 1900/1909 02003G08MPS 4000 BR OVC011 TEMPO 1900/1909 02005G12MPS 1200 SN OVC003
показать схемы
Название сценария Тип сценария Flight Simulator 9 Flight Simulator X Prepar3D v2 Prepar3D v3 Prepar3D v4 xPlane
Магнитогорск бесплатный


2019 © VATRUS division (Privacy Policy)